Terminal Aerodrome Forecast
Issued by NWS

Home | Current Version | Previous Version | Graphics & Text | Print | Product List | Glossary On
Versions: 1 2 3 4 5 6 7 8 9 10 11 12 13 14 15 16 17
071
FTUS43 KMPX 191627 AAA
TAFAXN
TAF AMD
KAXN 191627Z 1916/2012 13011KT P6SM OVC250
     FM191800 13011KT P6SM -SHRA SCT030 OVC090
     FM192000 13011KT P6SM BKN090
     FM200000 13011KT P6SM VCTS BKN050CB OVC100
      TEMPO 2000/2003 3SM -TSRA BKN030CB
     FM200300 10007KT P6SM VCSH SCT050 BKN090
     FM200500 04005KT P6SM SCT250
     FM200800 04003KT 5SM BR SKC=

USA.gov is the U.S. government's official web portal to all federal, state and local government web resources and services.